Time;durP1;ratioP1;P1;durP2;ratioP2;P2;SDS_P1;SDS_P2;PMS_P1;PMS_P2;Temp;Humidity;BMP_temperature;BMP_pressure;BME280_temperature;BME280_humidity;BME280_pressure;Samples;Min_cycle;Max_cycle;Signal;HPM_P1;HPM_P2
2023/11/30 00:01:47;;;;;;;5.95;5.45;;;3.80;99.90;;;;;;4964215;28;20276;-78
2023/11/30 00:04:23;;;;;;;5.30;4.82;;;3.70;99.90;;;;;;4962279;28;20286;-79
2023/11/30 00:06:49;;;;;;;7.25;6.55;;;3.80;99.90;;;;;;4972728;28;20733;-78
2023/11/30 00:09:17;;;;;;;8.60;5.43;;;3.70;99.90;;;;;;4973639;28;20269;-81
2023/11/30 00:11:46;;;;;;;7.45;6.57;;;3.70;99.90;;;;;;4974847;28;20234;-78
2023/11/30 00:14:13;;;;;;;5.47;4.80;;;3.70;99.90;;;;;;4972648;28;20314;-78
2023/11/30 00:16:46;;;;;;;8.52;7.15;;;3.70;99.90;;;;;;4970618;28;20263;-81
2023/11/30 00:19:16;;;;;;;6.85;6.00;;;3.70;99.90;;;;;;4972807;28;20230;-81
2023/11/30 00:21:43;;;;;;;7.25;6.55;;;3.70;99.90;;;;;;4972653;28;20573;-81
2023/11/30 00:24:10;;;;;;;6.93;6.22;;;3.60;99.90;;;;;;4959973;28;20632;-81
2023/11/30 00:26:38;;;;;;;6.00;5.50;;;3.60;99.90;;;;;;4954083;28;20290;-81
2023/11/30 00:29:06;;;;;;;5.70;5.20;;;3.60;99.90;;;;;;4966801;28;20223;-81
2023/11/30 00:31:33;;;;;;;9.10;7.38;;;3.60;99.90;;;;;;4964921;28;20232;-81
2023/11/30 00:34:00;;;;;;;9.18;7.15;;;3.60;99.90;;;;;;4954586;28;20224;-81
2023/11/30 00:36:28;;;;;;;6.93;6.22;;;3.50;99.90;;;;;;4954100;28;20220;-81
2023/11/30 00:38:57;;;;;;;8.95;7.38;;;3.50;99.90;;;;;;4957593;28;20253;-81
2023/11/30 00:41:24;;;;;;;8.10;6.70;;;3.50;99.90;;;;;;4955259;28;20574;-80
2023/11/30 00:43:51;;;;;;;9.40;6.80;;;3.40;99.90;;;;;;4954882;28;20550;-81
2023/11/30 00:46:19;;;;;;;6.63;6.03;;;3.40;99.90;;;;;;4967450;28;20578;-77
2023/11/30 00:48:46;;;;;;;7.60;6.78;;;3.40;99.90;;;;;;4957341;28;20239;-78
2023/11/30 00:51:13;;;;;;;8.63;7.60;;;3.40;99.90;;;;;;4952639;28;20275;-80
2023/11/30 00:53:41;;;;;;;7.72;6.90;;;3.30;99.90;;;;;;4954414;28;20232;-81
2023/11/30 00:56:11;;;;;;;7.53;6.82;;;3.30;99.90;;;;;;4970522;28;20282;-81
2023/11/30 00:58:38;;;;;;;6.07;5.47;;;3.30;99.90;;;;;;4954525;29;20232;-78
2023/11/30 01:01:05;;;;;;;10.48;7.93;;;3.30;99.90;;;;;;4959614;28;20310;-78
2023/11/30 01:03:34;;;;;;;17.50;15.48;;;3.20;99.90;;;;;;4974196;28;20231;-80
2023/11/30 01:06:01;;;;;;;9.63;8.45;;;3.30;99.90;;;;;;4974156;28;20250;-78
2023/11/30 01:08:28;;;;;;;8.45;7.55;;;3.20;99.90;;;;;;4974102;28;20686;-78
2023/11/30 01:10:55;;;;;;;7.80;7.00;;;3.20;99.90;;;;;;4974447;28;20300;-81
2023/11/30 01:13:22;;;;;;;9.20;8.20;;;3.30;99.90;;;;;;4973041;28;20306;-81
2023/11/30 01:15:49;;;;;;;9.75;7.90;;;3.20;99.90;;;;;;4974691;28;20251;-78
2023/11/30 01:18:16;;;;;;;8.43;7.32;;;3.20;99.90;;;;;;4974036;28;20752;-78
2023/11/30 01:20:44;;;;;;;10.18;8.27;;;3.20;99.90;;;;;;4974323;28;20286;-78
2023/11/30 01:23:11;;;;;;;8.60;7.80;;;3.20;99.90;;;;;;4973894;28;20630;-79
2023/11/30 01:25:38;;;;;;;9.00;7.85;;;3.20;99.90;;;;;;4974414;28;20620;-78
2023/11/30 01:28:05;;;;;;;10.75;8.68;;;3.10;99.90;;;;;;4974270;28;20310;-81
2023/11/30 01:30:32;;;;;;;7.90;7.10;;;3.10;99.90;;;;;;4973846;28;20228;-78
2023/11/30 01:32:59;;;;;;;8.30;7.45;;;3.10;99.90;;;;;;4976533;28;20235;-78
2023/11/30 01:35:28;;;;;;;8.68;7.78;;;3.10;99.90;;;;;;4977239;28;20243;-81
2023/11/30 01:37:57;;;;;;;9.88;8.48;;;3.10;99.90;;;;;;4977647;28;20242;-78
2023/11/30 01:40:24;;;;;;;8.52;7.35;;;3.10;99.90;;;;;;4977286;28;20223;-82
2023/11/30 01:42:51;;;;;;;7.57;6.78;;;3.10;99.90;;;;;;4977873;28;20243;-78
2023/11/30 01:45:18;;;;;;;10.57;8.55;;;3.10;99.90;;;;;;4976069;28;20223;-81
2023/11/30 01:47:46;;;;;;;9.45;8.10;;;3.00;99.90;;;;;;4958837;29;20396;-81
2023/11/30 01:50:13;;;;;;;8.68;7.68;;;3.00;99.90;;;;;;4957990;29;20754;-78
2023/11/30 01:52:40;;;;;;;12.32;7.50;;;3.00;99.90;;;;;;4958217;29;20335;-77
2023/11/30 01:55:12;;;;;;;9.05;7.93;;;3.00;99.90;;;;;;4970273;28;20290;-81
2023/11/30 01:57:40;;;;;;;9.10;8.20;;;3.00;99.90;;;;;;4977038;28;20228;-81
2023/11/30 02:00:08;;;;;;;10.82;8.52;;;2.90;99.90;;;;;;4977309;28;20310;-78
2023/11/30 02:02:39;;;;;;;8.77;7.80;;;3.00;99.90;;;;;;4967090;28;20664;-78
2023/11/30 02:05:13;;;;;;;9.70;8.38;;;3.00;99.90;;;;;;4976369;28;20282;-78
2023/11/30 02:07:39;;;;;;;10.40;8.43;;;3.00;99.90;;;;;;4976652;28;20219;-78
2023/11/30 02:10:10;;;;;;;8.70;7.65;;;3.00;99.90;;;;;;4977439;28;20285;-78
2023/11/30 02:12:37;;;;;;;10.52;8.50;;;3.00;99.90;;;;;;4976583;28;20709;-78
2023/11/30 02:15:05;;;;;;;12.90;9.45;;;3.00;99.90;;;;;;4977407;28;20227;-78
2023/11/30 02:17:32;;;;;;;10.60;9.15;;;3.00;99.90;;;;;;4976290;28;20231;-78
2023/11/30 02:19:59;;;;;;;9.57;7.40;;;2.90;99.90;;;;;;4976836;28;20238;-81
2023/11/30 02:22:28;;;;;;;11.35;8.90;;;3.00;99.90;;;;;;4976344;28;20227;-80
2023/11/30 02:24:55;;;;;;;9.65;8.65;;;2.90;99.90;;;;;;4977319;28;20564;-80
2023/11/30 02:27:22;;;;;;;9.05;7.55;;;2.90;99.90;;;;;;4976636;28;20622;-80
2023/11/30 02:29:49;;;;;;;9.38;8.43;;;2.90;99.90;;;;;;4976953;28;20231;-78
2023/11/30 02:32:15;;;;;;;10.25;8.07;;;2.90;99.90;;;;;;4976775;28;20228;-78
2023/11/30 02:34:42;;;;;;;9.32;8.35;;;2.90;99.90;;;;;;4975214;28;20801;-77
2023/11/30 02:37:09;;;;;;;8.80;8.00;;;2.80;99.90;;;;;;4975306;28;20251;-78
2023/11/30 02:39:38;;;;;;;9.50;8.20;;;2.80;99.90;;;;;;4974657;28;20262;-77
2023/11/30 02:42:06;;;;;;;9.98;7.82;;;2.80;99.90;;;;;;4975594;28;20278;-77
2023/11/30 02:44:33;;;;;;;16.30;13.13;;;2.80;99.90;;;;;;4955390;28;20234;-79
2023/11/30 02:46:59;;;;;;;10.55;9.55;;;2.80;99.90;;;;;;4957665;28;20228;-79
2023/11/30 02:49:27;;;;;;;10.00;8.90;;;2.70;99.90;;;;;;4955349;28;20228;-80
2023/11/30 02:51:54;;;;;;;10.80;8.13;;;2.70;99.90;;;;;;4957214;28;20290;-79
2023/11/30 02:54:21;;;;;;;11.68;9.52;;;2.70;99.90;;;;;;4956361;28;20224;-78
2023/11/30 02:56:49;;;;;;;10.60;8.52;;;2.70;99.90;;;;;;4957250;28;20252;-80
2023/11/30 02:59:16;;;;;;;9.70;8.30;;;2.70;99.90;;;;;;4957168;28;20704;-80
2023/11/30 03:01:44;;;;;;;10.50;8.57;;;2.70;99.90;;;;;;4956761;28;20228;-77
2023/11/30 03:07:16;;;;;;;10.60;8.10;;;2.70;99.90;;;;;;4957239;28;20299;-77
2023/11/30 03:09:43;;;;;;;9.20;7.82;;;2.60;99.90;;;;;;4957046;28;20311;-79
2023/11/30 03:12:12;;;;;;;9.48;8.43;;;2.60;99.90;;;;;;4956125;28;20247;-80
2023/11/30 03:14:39;;;;;;;10.20;8.55;;;2.60;99.90;;;;;;4956838;28;20291;-79
2023/11/30 03:17:06;;;;;;;12.52;8.45;;;2.60;99.90;;;;;;4956330;28;20310;-80
2023/11/30 03:19:33;;;;;;;10.85;9.30;;;2.60;99.90;;;;;;4956014;28;20223;-77
2023/11/30 03:21:59;;;;;;;10.73;8.40;;;2.60;99.90;;;;;;4956910;28;20232;-77
2023/11/30 03:24:26;;;;;;;12.65;9.75;;;2.50;99.90;;;;;;4955974;28;20319;-78
2023/11/30 03:26:53;;;;;;;11.77;9.48;;;2.50;99.90;;;;;;4956495;28;20224;-80
2023/11/30 03:29:22;;;;;;;12.77;9.18;;;2.50;99.90;;;;;;4955706;28;20271;-77
2023/11/30 03:31:48;;;;;;;11.18;9.43;;;2.50;99.90;;;;;;4956646;28;20291;-80
2023/11/30 03:34:15;;;;;;;11.38;9.38;;;2.50;99.90;;;;;;4956291;28;20614;-80
2023/11/30 03:36:43;;;;;;;9.93;8.20;;;2.50;99.90;;;;;;4956551;28;20242;-78
2023/11/30 03:39:10;;;;;;;9.43;8.43;;;2.50;99.90;;;;;;4955827;28;20232;-80
2023/11/30 03:41:37;;;;;;;10.93;8.38;;;2.50;99.90;;;;;;4956170;28;20228;-80
2023/11/30 03:44:04;;;;;;;10.25;9.18;;;2.50;99.90;;;;;;4956558;28;20236;-80
2023/11/30 03:46:33;;;;;;;10.38;9.07;;;2.50;99.90;;;;;;4929672;28;20714;-77
2023/11/30 03:49:00;;;;;;;10.60;8.60;;;2.40;99.90;;;;;;4956447;28;20231;-77
2023/11/30 03:51:27;;;;;;;10.80;9.07;;;2.40;99.90;;;;;;4955793;28;20282;-80
2023/11/30 03:53:54;;;;;;;10.60;8.98;;;2.40;99.90;;;;;;4956092;28;20244;-77
2023/11/30 03:56:21;;;;;;;11.23;8.68;;;2.40;99.90;;;;;;4955178;28;20291;-77
2023/11/30 03:58:47;;;;;;;11.75;9.88;;;2.40;99.90;;;;;;4955889;28;20236;-78
2023/11/30 04:01:21;;;;;;;11.75;9.05;;;2.40;99.90;;;;;;4955638;28;20227;-81
2023/11/30 04:03:50;;;;;;;11.32;9.30;;;2.40;99.90;;;;;;4955855;28;20228;-80
2023/11/30 04:06:19;;;;;;;9.82;8.77;;;2.40;99.90;;;;;;4955440;28;20232;-80
2023/11/30 04:08:46;;;;;;;13.50;9.75;;;2.40;99.90;;;;;;4956210;28;20227;-80
2023/11/30 04:11:15;;;;;;;10.65;9.02;;;2.40;99.90;;;;;;4954998;28;20228;-77
2023/11/30 04:13:44;;;;;;;11.43;9.55;;;2.40;99.90;;;;;;4955010;28;20315;-77
2023/11/30 04:16:11;;;;;;;12.20;9.15;;;2.40;99.90;;;;;;4955766;28;20290;-78
2023/11/30 04:18:38;;;;;;;10.88;9.27;;;2.40;99.90;;;;;;4955004;28;20667;-77
2023/11/30 04:21:07;;;;;;;11.00;9.32;;;2.40;99.90;;;;;;4955685;28;20286;-77
2023/11/30 04:23:34;;;;;;;10.95;8.85;;;2.40;99.90;;;;;;4954913;28;20298;-77
2023/11/30 04:26:01;;;;;;;11.45;8.82;;;2.40;99.90;;;;;;4955693;28;20933;-80
2023/11/30 04:28:30;;;;;;;11.15;8.90;;;2.40;99.90;;;;;;4955221;28;20232;-77
2023/11/30 04:30:57;;;;;;;11.18;9.05;;;2.30;99.90;;;;;;4955729;28;20279;-80
2023/11/30 04:33:24;;;;;;;13.80;10.20;;;2.30;99.90;;;;;;4955144;28;20314;-80
2023/11/30 04:35:51;;;;;;;10.63;8.68;;;2.30;99.90;;;;;;4955672;28;20227;-80
2023/11/30 04:38:20;;;;;;;10.52;8.63;;;2.40;99.90;;;;;;4955225;28;20231;-80
2023/11/30 04:40:46;;;;;;;11.35;9.48;;;2.40;99.90;;;;;;4955563;28;20228;-77
2023/11/30 04:43:13;;;;;;;9.63;8.40;;;2.30;99.90;;;;;;4955305;28;20260;-77
2023/11/30 04:45:40;;;;;;;11.02;9.52;;;2.30;99.90;;;;;;4954729;28;20584;-80
2023/11/30 04:48:07;;;;;;;12.52;10.00;;;2.30;99.90;;;;;;4955638;28;20571;-80
2023/11/30 04:50:35;;;;;;;14.13;10.15;;;2.30;99.90;;;;;;4954954;28;20299;-77
2023/11/30 04:53:02;;;;;;;12.77;10.02;;;2.30;99.90;;;;;;4955576;28;20231;-80
2023/11/30 04:55:30;;;;;;;11.70;9.70;;;2.30;99.90;;;;;;4954542;28;20243;-80
2023/11/30 04:57:58;;;;;;;10.38;8.57;;;2.30;99.90;;;;;;4955222;28;20238;-77
2023/11/30 05:00:28;;;;;;;10.45;9.07;;;2.30;99.90;;;;;;4954432;28;20228;-80
2023/11/30 05:02:55;;;;;;;13.85;10.52;;;2.30;99.90;;;;;;4955154;28;20228;-80
2023/11/30 05:05:23;;;;;;;12.98;10.50;;;2.30;99.90;;;;;;4955109;28;20224;-77
2023/11/30 05:07:50;;;;;;;12.68;9.23;;;2.30;99.90;;;;;;4957593;28;20235;-80
2023/11/30 05:10:17;;;;;;;11.25;9.70;;;2.30;99.90;;;;;;4959278;28;20230;-77
2023/11/30 05:12:46;;;;;;;13.80;9.60;;;2.30;99.90;;;;;;4958602;28;20239;-80
2023/11/30 05:15:14;;;;;;;13.38;9.93;;;2.30;99.90;;;;;;4959088;28;20256;-80
2023/11/30 05:17:41;;;;;;;17.00;11.40;;;2.30;99.90;;;;;;4958325;28;20248;-80
2023/11/30 05:20:10;;;;;;;12.35;9.68;;;2.30;99.90;;;;;;4958716;28;20232;-80
2023/11/30 05:22:37;;;;;;;15.95;11.40;;;2.30;99.90;;;;;;4957781;28;20232;-80
2023/11/30 05:25:04;;;;;;;12.35;9.73;;;2.20;99.90;;;;;;4958892;28;20629;-77
2023/11/30 05:27:31;;;;;;;11.30;9.93;;;2.30;99.90;;;;;;4958124;28;20228;-77
2023/11/30 05:30:00;;;;;;;11.57;9.55;;;2.30;99.90;;;;;;4958743;28;20227;-80
2023/11/30 05:32:27;;;;;;;11.48;9.55;;;2.30;99.90;;;;;;4958492;28;20310;-79
2023/11/30 05:34:54;;;;;;;10.00;8.80;;;2.30;99.90;;;;;;4958493;28;20251;-79
2023/11/30 05:37:21;;;;;;;10.82;9.48;;;2.30;99.90;;;;;;4958091;28;20225;-77
2023/11/30 05:39:48;;;;;;;11.68;9.20;;;2.30;99.90;;;;;;4958218;28;20227;-80
2023/11/30 05:42:15;;;;;;;11.55;9.43;;;2.30;99.90;;;;;;4958558;28;20242;-80
2023/11/30 05:44:42;;;;;;;12.02;9.10;;;2.30;99.90;;;;;;4957574;28;20291;-77
2023/11/30 05:47:10;;;;;;;11.93;10.20;;;2.30;99.90;;;;;;4958481;28;20266;-80
2023/11/30 05:49:37;;;;;;;11.63;10.07;;;2.30;99.90;;;;;;4958006;28;20223;-80
2023/11/30 05:52:04;;;;;;;11.38;9.95;;;2.30;99.90;;;;;;4958255;28;20234;-80
2023/11/30 05:54:31;;;;;;;12.30;10.15;;;2.30;99.90;;;;;;4958125;28;20223;-78
2023/11/30 05:56:58;;;;;;;10.65;8.55;;;2.30;99.90;;;;;;4958242;28;20220;-77
2023/11/30 05:59:26;;;;;;;12.98;10.02;;;2.30;99.90;;;;;;4957659;28;20259;-78
2023/11/30 06:01:52;;;;;;;12.43;10.10;;;2.30;99.90;;;;;;4957710;28;20282;-80
2023/11/30 06:04:20;;;;;;;12.30;10.63;;;2.30;99.90;;;;;;4958341;28;20219;-80
2023/11/30 06:06:47;;;;;;;12.00;9.73;;;2.30;99.90;;;;;;4957437;28;20954;-81
2023/11/30 06:09:15;;;;;;;13.52;10.70;;;2.30;99.90;;;;;;4957658;28;20683;-78
2023/11/30 06:11:44;;;;;;;20.02;15.18;;;2.20;99.90;;;;;;4957449;28;20255;-77
2023/11/30 06:14:11;;;;;;;15.88;12.18;;;2.30;99.90;;;;;;4957873;28;20315;-77
2023/11/30 06:16:38;;;;;;;13.15;10.80;;;2.20;99.90;;;;;;4957209;28;20224;-77
2023/11/30 06:19:05;;;;;;;15.05;11.73;;;2.30;99.90;;;;;;4957838;28;20259;-78
2023/11/30 06:21:34;;;;;;;12.57;10.32;;;2.30;99.90;;;;;;4956748;28;20228;-80
2023/11/30 06:24:00;;;;;;;14.88;12.15;;;2.30;99.90;;;;;;4957134;28;20224;-77
2023/11/30 06:26:28;;;;;;;15.77;10.30;;;2.40;99.90;;;;;;4957796;28;20287;-77
2023/11/30 06:28:55;;;;;;;15.73;11.10;;;2.40;99.90;;;;;;4957434;28;20562;-77
2023/11/30 06:31:22;;;;;;;13.15;9.90;;;2.40;99.90;;;;;;4957570;28;20256;-77
2023/11/30 06:33:50;;;;;;;12.80;10.15;;;2.40;99.90;;;;;;4957137;28;20721;-77
2023/11/30 06:36:17;;;;;;;12.30;10.52;;;2.40;99.90;;;;;;4957947;28;20234;-80
2023/11/30 06:38:45;;;;;;;14.70;10.10;;;2.40;99.90;;;;;;4957116;28;20227;-80
2023/11/30 06:41:15;;;;;;;13.23;10.32;;;2.50;99.90;;;;;;4956995;28;20224;-77
2023/11/30 06:43:42;;;;;;;10.90;9.65;;;2.50;99.90;;;;;;4956869;28;20563;-77
2023/11/30 06:46:09;;;;;;;12.43;10.18;;;2.50;99.90;;;;;;4957191;28;20678;-77
2023/11/30 06:48:36;;;;;;;14.45;10.25;;;2.60;99.90;;;;;;4957062;28;20303;-80
2023/11/30 06:51:03;;;;;;;15.07;11.48;;;2.60;99.90;;;;;;4956968;28;20248;-77
2023/11/30 06:53:30;;;;;;;13.55;10.23;;;2.60;99.90;;;;;;4957918;28;20575;-80
2023/11/30 06:55:58;;;;;;;15.02;10.73;;;2.60;99.90;;;;;;4956558;28;20315;-77
2023/11/30 06:58:25;;;;;;;15.90;11.88;;;2.60;99.90;;;;;;4957346;28;20219;-77
2023/11/30 07:00:52;;;;;;;15.27;10.68;;;2.70;99.90;;;;;;4956267;28;20243;-77
2023/11/30 07:03:19;;;;;;;16.30;10.43;;;2.70;99.90;;;;;;4957034;28;20238;-77
2023/11/30 07:05:46;;;;;;;17.02;11.98;;;2.70;99.90;;;;;;4956687;28;20228;-80
2023/11/30 07:08:13;;;;;;;15.02;11.75;;;2.70;99.90;;;;;;4956804;28;20224;-80
2023/11/30 07:10:40;;;;;;;16.33;11.38;;;2.70;99.90;;;;;;4956100;28;20228;-78
2023/11/30 07:13:08;;;;;;;14.70;9.85;;;2.70;99.90;;;;;;4956819;28;20323;-77
2023/11/30 07:15:35;;;;;;;13.20;10.32;;;2.70;99.90;;;;;;4956327;28;20278;-77
2023/11/30 07:18:03;;;;;;;13.80;10.63;;;2.70;99.90;;;;;;4956699;28;20232;-77
2023/11/30 07:20:30;;;;;;;13.73;10.65;;;2.80;99.90;;;;;;4956370;28;20236;-79
2023/11/30 07:22:58;;;;;;;12.43;10.85;;;2.80;99.90;;;;;;4956538;28;20244;-80
2023/11/30 07:25:25;;;;;;;12.98;10.00;;;2.70;99.90;;;;;;4956608;28;20215;-80
2023/11/30 07:27:54;;;;;;;12.45;10.63;;;2.80;99.90;;;;;;4956206;28;20228;-80
2023/11/30 07:30:22;;;;;;;12.90;9.98;;;2.70;99.90;;;;;;4955589;28;20259;-80
2023/11/30 07:32:50;;;;;;;12.20;8.95;;;2.70;99.90;;;;;;4955895;28;20235;-80
2023/11/30 07:35:17;;;;;;;13.45;10.77;;;2.70;99.90;;;;;;4956297;28;20235;-77
2023/11/30 07:37:44;;;;;;;12.40;10.35;;;2.70;99.90;;;;;;4955616;28;20291;-77
2023/11/30 07:40:11;;;;;;;13.48;9.60;;;2.70;99.90;;;;;;4956053;28;20227;-77
2023/11/30 07:42:42;;;;;;;13.18;10.48;;;2.70;99.90;;;;;;4955525;28;20279;-76
2023/11/30 07:45:10;;;;;;;13.82;10.80;;;2.70;99.90;;;;;;4956074;28;20223;-80
2023/11/30 07:47:42;;;;;;;11.48;10.07;;;2.70;99.90;;;;;;4956158;28;20311;-80
2023/11/30 07:50:10;;;;;;;15.98;10.50;;;2.70;99.90;;;;;;4955839;28;20294;-80
2023/11/30 07:52:40;;;;;;;18.98;11.85;;;2.70;99.90;;;;;;4956231;28;20242;-77
2023/11/30 07:55:08;;;;;;;12.00;9.63;;;2.70;99.90;;;;;;4955503;28;20224;-77
2023/11/30 07:57:36;;;;;;;18.75;12.88;;;2.70;99.90;;;;;;4955949;28;20694;-77
2023/11/30 08:00:04;;;;;;;14.88;10.57;;;2.70;99.90;;;;;;4955517;28;20294;-76
2023/11/30 08:02:32;;;;;;;11.65;10.45;;;2.70;99.90;;;;;;4955763;28;20235;-77
2023/11/30 08:05:04;;;;;;;13.15;10.32;;;2.70;99.90;;;;;;4955297;28;20307;-77
2023/11/30 08:07:32;;;;;;;19.05;11.20;;;2.80;99.90;;;;;;4955881;28;20278;-77
2023/11/30 08:09:58;;;;;;;15.65;11.48;;;2.70;99.90;;;;;;4955660;28;20220;-76
2023/11/30 08:12:26;;;;;;;16.52;12.30;;;2.80;99.90;;;;;;4955715;28;20232;-77
2023/11/30 08:14:53;;;;;;;13.45;11.80;;;2.80;99.90;;;;;;4955629;28;20581;-80
2023/11/30 08:17:20;;;;;;;14.40;10.95;;;2.80;99.90;;;;;;4955756;28;20216;-76
2023/11/30 08:19:48;;;;;;;15.40;10.23;;;2.80;99.90;;;;;;4955383;28;20228;-77
2023/11/30 08:22:17;;;;;;;13.68;10.43;;;2.90;99.90;;;;;;4955075;28;20238;-77
2023/11/30 08:24:43;;;;;;;16.65;12.60;;;2.90;99.90;;;;;;4955093;28;20290;-77
2023/11/30 08:27:11;;;;;;;13.90;11.77;;;2.90;99.90;;;;;;4955293;28;20234;-76
2023/11/30 08:29:38;;;;;;;15.57;11.38;;;2.90;99.90;;;;;;4955700;28;20304;-77
2023/11/30 08:32:06;;;;;;;14.85;11.25;;;3.00;99.90;;;;;;4955294;28;20228;-80
2023/11/30 08:34:35;;;;;;;21.10;13.07;;;3.00;99.90;;;;;;4955614;28;20639;-79
2023/11/30 08:37:02;;;;;;;16.60;10.88;;;3.00;99.90;;;;;;4954954;28;20224;-80
2023/11/30 08:39:30;;;;;;;14.40;10.57;;;3.10;99.90;;;;;;4954796;28;20655;-80
2023/11/30 08:41:57;;;;;;;17.42;11.30;;;3.20;99.90;;;;;;4954073;28;20251;-80
2023/11/30 08:44:24;;;;;;;22.80;13.30;;;3.10;99.90;;;;;;4955754;28;20290;-80
2023/11/30 08:46:51;;;;;;;16.25;12.77;;;3.00;99.90;;;;;;4955452;28;20274;-80
2023/11/30 08:49:18;;;;;;;13.68;10.90;;;3.10;99.90;;;;;;4954747;28;20243;-80
2023/11/30 08:51:45;;;;;;;15.15;11.75;;;3.10;99.90;;;;;;4955434;28;20232;-80
2023/11/30 08:54:12;;;;;;;15.18;12.43;;;3.10;99.90;;;;;;4954532;28;20263;-81
2023/11/30 08:56:41;;;;;;;16.00;12.02;;;3.20;99.90;;;;;;4954784;28;20224;-81
2023/11/30 08:59:10;;;;;;;16.75;13.20;;;3.20;99.90;;;;;;4954995;28;20248;-81
2023/11/30 09:01:38;;;;;;;14.95;11.43;;;3.20;99.90;;;;;;4955277;28;20234;-80
2023/11/30 09:04:08;;;;;;;15.93;11.98;;;3.20;99.90;;;;;;4955153;28;20259;-81
2023/11/30 09:06:35;;;;;;;18.48;13.07;;;3.20;99.90;;;;;;4955486;28;20250;-81
2023/11/30 09:09:03;;;;;;;17.58;12.60;;;3.20;99.90;;;;;;4954919;28;20224;-81
2023/11/30 09:11:30;;;;;;;21.13;14.23;;;3.30;99.90;;;;;;4954994;28;20258;-81
2023/11/30 09:13:58;;;;;;;16.27;12.60;;;3.30;99.90;;;;;;4954570;28;20263;-81
2023/11/30 09:16:26;;;;;;;14.20;11.90;;;3.30;99.90;;;;;;4955412;28;20239;-81
2023/11/30 09:19:01;;;;;;;15.65;12.48;;;3.30;99.90;;;;;;4955278;28;20235;-81
2023/11/30 09:21:28;;;;;;;14.10;11.70;;;3.30;99.90;;;;;;4928794;28;20247;-80
2023/11/30 09:23:55;;;;;;;16.90;13.52;;;3.30;99.90;;;;;;4955017;28;20677;-80
2023/11/30 09:26:22;;;;;;;24.70;13.35;;;3.40;99.90;;;;;;4954850;28;20224;-81
2023/11/30 09:28:49;;;;;;;19.75;11.45;;;3.40;99.90;;;;;;4955317;28;20238;-80
2023/11/30 09:31:18;;;;;;;13.40;10.95;;;3.40;99.90;;;;;;4954858;28;20224;-80
2023/11/30 09:33:45;;;;;;;13.68;11.13;;;3.50;99.90;;;;;;4955329;28;20307;-80
2023/11/30 09:36:13;;;;;;;13.23;11.32;;;3.50;99.90;;;;;;4954772;28;20232;-80
2023/11/30 09:38:40;;;;;;;12.95;10.23;;;3.50;99.90;;;;;;4955164;28;20238;-80
2023/11/30 09:41:08;;;;;;;14.77;11.10;;;3.60;99.90;;;;;;4954696;28;20236;-81
2023/11/30 09:43:35;;;;;;;14.30;10.63;;;3.60;99.90;;;;;;4955002;28;20236;-80
2023/11/30 09:46:02;;;;;;;12.02;10.75;;;3.60;99.90;;;;;;4954858;28;20261;-80
2023/11/30 09:48:30;;;;;;;12.85;10.68;;;3.70;99.90;;;;;;4954454;28;20235;-80
2023/11/30 09:50:57;;;;;;;13.82;10.18;;;3.70;99.90;;;;;;4955134;28;20286;-80
2023/11/30 09:53:24;;;;;;;13.80;9.70;;;3.70;99.90;;;;;;4955774;28;20322;-80
2023/11/30 09:55:52;;;;;;;9.95;8.95;;;3.80;99.90;;;;;;4958788;28;20569;-81
2023/11/30 09:58:18;;;;;;;13.40;9.77;;;3.80;99.90;;;;;;4957507;28;20235;-81
2023/11/30 10:00:45;;;;;;;11.57;9.95;;;3.80;99.90;;;;;;4958354;28;20295;-81
2023/11/30 10:03:12;;;;;;;14.32;10.98;;;3.90;99.90;;;;;;4958118;28;20240;-80
2023/11/30 10:05:43;;;;;;;13.10;10.88;;;3.80;99.90;;;;;;4958309;28;20216;-80
2023/11/30 10:08:10;;;;;;;12.45;9.90;;;3.90;99.90;;;;;;4958002;28;20349;-81
2023/11/30 10:10:37;;;;;;;10.45;9.35;;;3.90;99.90;;;;;;4958355;28;20228;-78
2023/11/30 10:13:05;;;;;;;10.60;9.32;;;3.90;99.90;;;;;;4958063;28;20240;-78
2023/11/30 10:15:32;;;;;;;16.50;11.73;;;4.00;99.90;;;;;;4957824;28;20546;-81
2023/11/30 10:18:00;;;;;;;17.58;13.40;;;4.00;99.90;;;;;;4958356;28;20326;-81
2023/11/30 10:20:27;;;;;;;15.88;12.35;;;4.00;99.90;;;;;;4957956;28;20227;-81
2023/11/30 10:22:55;;;;;;;17.73;13.35;;;4.00;99.90;;;;;;4957492;28;20232;-80
2023/11/30 10:25:24;;;;;;;15.30;12.88;;;4.10;99.90;;;;;;4957507;28;20231;-81
2023/11/30 10:27:53;;;;;;;16.77;11.93;;;4.10;99.90;;;;;;4958269;28;20307;-80
2023/11/30 10:30:25;;;;;;;16.75;12.88;;;4.10;99.90;;;;;;4957306;28;20307;-80
2023/11/30 10:32:53;;;;;;;16.85;13.93;;;4.10;99.90;;;;;;4957886;28;20287;-80
2023/11/30 10:35:24;;;;;;;19.20;12.82;;;4.10;99.90;;;;;;4957550;28;20228;-79
2023/11/30 10:37:52;;;;;;;17.45;13.55;;;4.10;99.90;;;;;;4957274;28;20235;-80
2023/11/30 10:40:24;;;;;;;17.23;13.65;;;4.10;99.90;;;;;;4957234;28;20238;-80
2023/11/30 10:42:51;;;;;;;20.77;13.55;;;4.20;99.90;;;;;;4957457;28;20236;-80
2023/11/30 10:45:20;;;;;;;18.48;14.05;;;4.20;99.90;;;;;;4957234;28;20646;-77
2023/11/30 10:47:51;;;;;;;18.20;14.05;;;4.10;99.90;;;;;;4957349;28;20228;-79
2023/11/30 10:50:19;;;;;;;18.10;14.93;;;4.10;99.90;;;;;;4957027;28;20220;-79
2023/11/30 10:52:48;;;;;;;19.17;13.52;;;4.20;99.90;;;;;;4957534;28;20327;-77
2023/11/30 10:55:19;;;;;;;17.13;14.40;;;4.10;99.90;;;;;;4957382;28;20227;-77
2023/11/30 10:57:48;;;;;;;18.55;14.38;;;4.20;99.90;;;;;;4956807;28;20236;-80
2023/11/30 11:00:16;;;;;;;15.45;12.50;;;4.20;99.90;;;;;;4957621;28;20252;-81
2023/11/30 11:02:45;;;;;;;19.75;14.60;;;4.20;99.90;;;;;;4956083;28;20240;-77
2023/11/30 11:05:14;;;;;;;21.00;16.13;;;4.20;99.90;;;;;;4956954;28;20242;-77
2023/11/30 11:07:45;;;;;;;21.40;14.40;;;4.20;99.90;;;;;;4957525;28;20247;-77
2023/11/30 11:10:22;;;;;;;17.02;12.35;;;4.20;99.90;;;;;;4959824;28;20228;-80
2023/11/30 11:12:52;;;;;;;16.08;12.23;;;4.30;99.90;;;;;;4956983;28;20243;-80
2023/11/30 11:15:21;;;;;;;14.52;10.63;;;4.30;99.90;;;;;;4957244;28;20220;-80
2023/11/30 11:17:49;;;;;;;15.32;10.85;;;4.30;99.90;;;;;;4956884;28;20238;-80
2023/11/30 11:20:21;;;;;;;12.82;11.43;;;4.30;99.90;;;;;;4957930;28;20228;-80
2023/11/30 11:22:50;;;;;;;16.45;13.05;;;4.30;99.90;;;;;;4956197;28;20235;-77
2023/11/30 11:25:18;;;;;;;14.68;10.88;;;4.30;99.90;;;;;;4957155;28;20670;-80
2023/11/30 11:27:46;;;;;;;15.55;10.82;;;4.30;99.90;;;;;;4956458;28;20598;-77
2023/11/30 11:30:16;;;;;;;12.80;10.57;;;4.30;99.90;;;;;;4956869;28;20263;-79
2023/11/30 11:32:44;;;;;;;16.48;12.27;;;4.30;99.90;;;;;;4955523;28;20328;-77
2023/11/30 11:35:11;;;;;;;13.45;10.30;;;4.30;99.90;;;;;;4956613;28;20283;-80
2023/11/30 11:37:38;;;;;;;13.15;10.73;;;4.30;99.90;;;;;;4956631;28;20228;-81
2023/11/30 11:40:06;;;;;;;11.20;9.82;;;4.30;99.90;;;;;;4956340;28;20227;-80
2023/11/30 11:42:34;;;;;;;9.25;8.35;;;4.20;99.90;;;;;;4955986;28;20228;-80
2023/11/30 11:45:05;;;;;;;14.27;8.93;;;4.30;99.90;;;;;;4956680;28;20663;-80
2023/11/30 11:47:34;;;;;;;13.10;9.57;;;4.30;99.90;;;;;;4956029;28;20257;-77
2023/11/30 11:50:01;;;;;;;12.30;9.57;;;4.30;99.90;;;;;;4956466;28;20216;-77
2023/11/30 11:52:30;;;;;;;13.40;10.75;;;4.30;99.90;;;;;;4954865;28;20224;-79
2023/11/30 11:55:03;;;;;;;12.07;10.35;;;4.30;99.90;;;;;;4956740;28;20571;-80
2023/11/30 11:57:35;;;;;;;11.68;9.27;;;4.30;99.90;;;;;;4955785;28;20215;-78
2023/11/30 12:00:02;;;;;;;12.75;10.23;;;4.40;99.90;;;;;;4956188;28;20228;-77
2023/11/30 12:02:29;;;;;;;15.50;9.85;;;4.40;99.90;;;;;;4955629;28;20295;-79
2023/11/30 12:05:06;;;;;;;14.35;10.95;;;4.40;99.90;;;;;;4956287;28;20224;-77
2023/11/30 12:07:34;;;;;;;13.57;10.60;;;4.40;99.90;;;;;;4955940;28;20624;-80
2023/11/30 12:10:04;;;;;;;12.65;10.23;;;4.40;99.90;;;;;;4956248;28;20544;-80
2023/11/30 12:12:33;;;;;;;12.40;9.00;;;4.40;99.90;;;;;;4955078;28;20295;-81
2023/11/30 12:15:00;;;;;;;13.13;9.70;;;4.40;99.90;;;;;;4955782;28;20232;-80
2023/11/30 12:17:27;;;;;;;12.70;9.35;;;4.40;99.90;;;;;;4956013;28;20223;-80
2023/11/30 12:19:55;;;;;;;14.60;10.23;;;4.40;99.90;;;;;;4955066;28;20219;-81
2023/11/30 12:22:23;;;;;;;13.27;10.35;;;4.40;99.90;;;;;;4955176;28;20231;-80
2023/11/30 12:24:50;;;;;;;16.40;12.38;;;4.40;99.90;;;;;;4954895;28;20238;-81
2023/11/30 12:27:17;;;;;;;16.77;13.30;;;4.40;99.90;;;;;;4955940;28;20234;-81
2023/11/30 12:29:44;;;;;;;19.08;14.15;;;4.40;99.90;;;;;;4955477;28;20239;-80
2023/11/30 12:32:13;;;;;;;16.77;13.95;;;4.40;99.90;;;;;;4955881;28;20328;-81
2023/11/30 12:34:40;;;;;;;17.23;13.93;;;4.40;99.90;;;;;;4955207;28;20565;-79
2023/11/30 12:37:07;;;;;;;16.90;14.98;;;4.40;99.90;;;;;;4955762;28;20220;-80
2023/11/30 12:39:35;;;;;;;18.85;13.73;;;4.40;99.90;;;;;;4955884;28;20219;-79
2023/11/30 12:42:02;;;;;;;16.35;13.80;;;4.40;99.90;;;;;;4955650;28;20232;-80
2023/11/30 12:44:30;;;;;;;21.65;15.63;;;4.30;99.90;;;;;;4955543;28;20239;-80
2023/11/30 12:46:57;;;;;;;23.77;14.57;;;4.40;99.90;;;;;;4955196;28;20223;-78
2023/11/30 12:49:26;;;;;;;18.92;15.13;;;4.40;99.90;;;;;;4955968;28;20698;-80